• Join FlightAware (Why Join?)
  • Login
  • US Flag 
09:29AM EST


 

Airport Tracker/Info


-or-


 

Live Flight TrackerFlight Track Log ✈ KAP21 ✈ 30-Aug-2013 ✈ KBOS - KLEB

Flight Track Log - Related Links

Times and Time Zones

All times are in EDT time to prevent confusion due to time zone crossing. See the KAP21 flight status page for this flight to view local times or setup timezone preferences in your user account.

Time Position Orientation Groundspeed Altitude Reporting Facility
EDT Latitude Longitude Course Direction KTS MPH feet Rate Location/Type
03:59PM 42.3667 -71.0167 216° Southwest 106 122 400  Level KA90
03:59PM 42.3500 -71.0333 216° Southwest 116 133 800 900 Climbing KA90
04:00PM 42.3667 -71.0833 294° West 115 132 1,900 900 Climbing KA90
04:01PM 42.3667 -71.1333 270° West 123 142 2,700 840 Climbing KA90
04:02PM 42.3833 -71.1833 294° West 134 154 3,600 720 Climbing KA90
04:03PM 42.4000 -71.2167 304° West 135 155 4,300 660 Climbing KA90
04:04PM 42.4333 -71.2333 340° North 136 157 5,000 240 Climbing KA90
04:05PM 42.4833 -71.2333 360° North 163 188 4,900 60 Descending KA90
04:06PM 42.5167 -71.2500 340° North 157 181 5,200 360 Climbing KA90
04:07PM 42.5667 -71.2667 346° North 137 158 5,700 240 Climbing KA90
04:08PM 42.6167 -71.2833 346° North 149 171 5,800 300 Climbing KA90
04:09PM 42.6500 -71.2833 360° North 138 159 6,400 480 Climbing KA90
04:10PM 42.6833 -71.3000 340° North 138 159 6,800 360 Climbing KA90
04:11PM 42.7167 -71.3167 340° North 141 162 7,200 420 Climbing KA90
04:12PM 42.7500 -71.3500 324° Northwest 142 163 7,700 360 Climbing KA90
04:13PM 42.7833 -71.3833 324° Northwest 142 163 8,000 120 Climbing KA90
04:14PM 42.8167 -71.4167 324° Northwest 163 188 8,000  Level KA90
04:15PM 42.8500 -71.4500 324° Northwest 163 188 8,000 -60 Level KA90
04:16PM 42.9000 -71.5000 324° Northwest 166 191 7,900  Descending KA90
04:17PM 42.9333 -71.5333 324° Northwest 160 184 8,000 120 Climbing KA90
04:18PM 42.9667 -71.5667 324° Northwest 162 186 8,200 -60 Climbing KA90
04:19PM 42.9892 -71.6083 306° West 190 219 7,900 -180 Descending Boston Center
04:20PM 43.0292 -71.6506 322° Northwest 177 204 7,900  Level Boston Center
04:21PM 43.0586 -71.6814 323° Northwest 160 184 7,900  Level Boston Center
04:22PM 43.0983 -71.7264 320° Northwest 160 184 8,000  Climbing Boston Center
04:23PM 43.1278 -71.7575 322° Northwest 160 184 8,000 -60 Level Boston Center
04:24PM 43.1697 -71.7994 324° Northwest 160 184 7,900  Descending Boston Center
04:25PM 43.2011 -71.8364 319° Northwest 160 184 8,000  Climbing Boston Center
04:26PM 43.2411 -71.8814 321° Northwest 160 184 8,000 -300 Level Boston Center
04:27PM 43.2744 -71.9183 321° Northwest 160 184 7,400 -840 Descending Boston Center
04:28PM 43.3206 -71.9692 321° Northwest 186 214 6,400 -1,020 Descending Boston Center
04:29PM 43.3583 -72.0117 321° Northwest 191 220 5,500 -1,020 Descending Boston Center
04:30PM 43.4042 -72.0600 323° Northwest 191 220 4,500 -1,020 Descending Boston Center